Flight Track Log - Related Links

Times and Time Zones

All times are in EDT time to prevent confusion due to time zone crossing. See the N101MA flight status page for this flight to view local times or setup timezone preferences in your user account.

Time Position Orientation Groundspeed Altitude Reporting Facility
EDT Latitude Longitude Course Direction KTS MPH feet Rate Location/Type
Mon 01:23:23 PM 41.2908 -71.9869 245° Southwest 112 129 4,600  Level Boston Center
Mon 01:24:24 PM 41.2783 -72.0258 247° West 113 130 5,500 879 Climbing Boston Center
Mon 01:25:19 PM 41.2661 -72.0617 246° West 115 132 6,300 887 Climbing Boston Center
Mon 01:26:19 PM 41.2536 -72.1006 247° West 118 136 7,200 893 Climbing Boston Center
Mon 01:27:20 PM 41.2414 -72.1392 247° West 110 127 8,100 716 Climbing Boston Center
Mon 01:28:00 PM 41.2502 -72.2723 245° Southwest  Level Estimated
Mon 01:28:08 PM 41.2308 -72.1669 243° Southwest 113 130 8,500  Level Boston Center
Mon 01:30:38 PM 41.1833 -72.3000 245° Southwest 154 177 8,600 28 Climbing New York TRACON
Mon 01:31:39 PM 41.1667 -72.3500 246° West 155 178 8,600  Level New York TRACON
Mon 01:32:44 PM 41.1500 -72.4000 246° West 155 178 8,600  Level New York TRACON
Mon 01:33:39 PM 41.1333 -72.4500 246° West 158 182 8,600  Level New York TRACON
Mon 01:34:39 PM 41.1167 -72.5000 246° West 156 180 8,600  Level New York TRACON
Mon 01:35:39 PM 41.1000 -72.5500 246° West 159 183 8,600  Level New York TRACON
Mon 01:36:39 PM 41.0833 -72.6000 246° West 160 184 8,600  Level New York TRACON
Mon 01:37:39 PM 41.0500 -72.6500 229° Southwest 161 185 8,600  Level New York TRACON
Mon 01:38:44 PM 41.0333 -72.7167 252° West 160 184 8,600  Level New York TRACON
Mon 01:39:45 PM 41.0167 -72.7667 246° West 161 185 8,600  Level New York TRACON
Mon 01:40:45 PM 40.9833 -72.8167 229° Southwest 161 185 8,600  Level New York TRACON
Mon 01:41:45 PM 40.9667 -72.8667 246° West 159 183 8,600  Level New York TRACON
Mon 01:42:45 PM 40.9500 -72.9167 246° West 157 181 8,600  Level New York TRACON
Mon 01:43:45 PM 40.9333 -72.9667 246° West 157 181 8,600  Level New York TRACON
Mon 01:44:45 PM 40.9167 -73.0167 246° West 160 184 8,600  Level New York TRACON
Mon 01:45:45 PM 40.8833 -73.0667 229° Southwest 157 181 8,600  Level New York TRACON
Mon 01:46:44 PM 40.8500 -73.1167 229° Southwest 162 186 8,600  Level New York TRACON
Mon 01:47:39 PM 40.8333 -73.1500 237° Southwest 159 183 8,600  Level New York TRACON
Mon 01:48:45 PM 40.8167 -73.2167 252° West 162 186 8,600  Level New York TRACON
Mon 01:49:44 PM 40.8000 -73.2667 246° West 161 185 8,600  Level New York TRACON
Mon 01:50:45 PM 40.7833 -73.3167 246° West 159 183 8,600  Level New York TRACON
Mon 01:51:45 PM 40.7667 -73.3833 252° West 160 184 8,600  Level New York TRACON
Mon 01:52:45 PM 40.7500 -73.4333 246° West 157 181 8,600  Level New York TRACON
Mon 01:53:44 PM 40.7333 -73.4833 246° West 159 183 8,600  Level New York TRACON
Mon 01:54:45 PM 40.7167 -73.5500 252° West 159 183 8,600  Level New York TRACON
Mon 01:55:45 PM 40.7000 -73.6000 246° West 159 183 8,600  Level New York TRACON
Mon 01:56:45 PM 40.6833 -73.6500 246° West 160 184 8,600  Level New York TRACON
Mon 01:57:45 PM 40.6833 -73.7000 270° West 156 180 8,600  Level New York TRACON
Mon 01:58:51 PM 40.6667 -73.7667 252° West 161 185 8,600  Level New York TRACON
Mon 01:59:45 PM 40.6500 -73.8167 246° West 161 185 8,600  Level New York TRACON
Mon 02:00:45 PM 40.6333 -73.8667 246° West 162 186 8,600  Level New York TRACON
Mon 02:01:45 PM 40.6167 -73.9333 252° West 159 183 8,600  Level New York TRACON
Mon 02:02:45 PM 40.6000 -73.9833 246° West 162 186 8,600  Level New York TRACON
Mon 02:03:45 PM 40.5833 -74.0333 246° West 161 185 8,600  Level New York TRACON
Mon 02:04:45 PM 40.5667 -74.1000 252° West 164 189 8,600  Level New York TRACON
Mon 02:05:45 PM 40.5500 -74.1500 246° West 166 191 8,600  Level New York TRACON
Mon 02:06:45 PM 40.5333 -74.2000 246° West 167 192 8,600  Level New York TRACON
Mon 02:07:45 PM 40.5167 -74.2667 252° West 166 191 8,600  Level New York TRACON
Mon 02:08:39 PM 40.5000 -74.3000 237° Southwest 163 188 8,600  Level New York TRACON
Mon 02:09:45 PM 40.4833 -74.3667 252° West 165 190 8,600 -238 Level New York TRACON
Mon 02:10:45 PM 40.4667 -74.4167 246° West 172 198 8,100 -450 Descending New York TRACON
Mon 02:11:45 PM 40.4500 -74.4833 252° West 180 207 7,700 -519 Descending New York TRACON
Mon 02:13:50 PM 40.4000 -74.6000 241° Southwest 191 220 6,500 -551 Descending Philadelphia TRACON
Mon 02:14:50 PM 40.3667 -74.6667 237° Southwest 186 214 6,000 -500 Descending Philadelphia TRACON
Mon 02:15:50 PM 40.3333 -74.7167 229° Southwest 186 214 5,500 -476 Descending Philadelphia TRACON
Mon 02:16:56 PM 40.3000 -74.7833 237° Southwest 187 215 5,000 -496 Descending Philadelphia TRACON
Mon 02:17:51 PM 40.2833 -74.8333 246° West 186 214 4,500 -350 Descending Philadelphia TRACON
Mon 02:18:56 PM 40.2667 -74.9000 252° West 162 186 4,300 -336 Descending Philadelphia TRACON
Mon 02:19:56 PM 40.2500 -74.9500 246° West 170 196 3,800 -545 Descending Philadelphia TRACON
Mon 02:20:57 PM 40.2333 -75.0000 246° West 171 197 3,200 -574 Descending Philadelphia TRACON
Mon 02:21:51 PM 40.2167 -75.0500 246° West 162 186 2,700 -556 Descending Philadelphia TRACON
Mon 02:23:00 PM 40.1913 -75.1008 237° Southwest  Level FlightAware Approximate
Mon 02:30:00 PM 40.1333 -75.2500 252° West  Level FlightAware Approximate
Mon 02:31:00 PM 40.1376 -75.2651 252° West  Level Estimated
Mon 02:32:00 PM 40.1376 -75.2651 252° West  Level Estimated
Mon 02:33:00 PM 40.1376 -75.2651 252° West  Level Estimated
Mon 02:34:00 PM 40.1376 -75.2651 252° West  Level Estimated

Login

Don't have an account? Register now (free) for customized features, flight alerts, and more!